Time;durP1;ratioP1;P1;durP2;ratioP2;P2;SDS_P1;SDS_P2;PMS_P1;PMS_P2;Temp;Humidity;BMP_temperature;BMP_pressure;BME280_temperature;BME280_humidity;BME280_pressure;Samples;Min_cycle;Max_cycle;Signal;HPM_P1;HPM_P2
2022/01/22 00:01:47;;;;;;;5.00;3.67;;;;;;;0.22;46.58;99883.72;6277169;22;19995;-77
2022/01/22 00:04:13;;;;;;;5.43;3.23;;;;;;;0.69;46.82;99960.97;6275425;22;19996;-77
2022/01/22 00:06:38;;;;;;;5.33;3.10;;;;;;;0.29;46.88;99927.34;6274834;22;20023;-78
2022/01/22 00:09:04;;;;;;;3.73;3.10;;;;;;;0.70;46.89;99965.25;6274703;22;20373;-77
2022/01/22 00:11:36;;;;;;;4.10;3.00;;;;;;;0.60;46.79;99949.47;6274591;22;20000;-76
2022/01/22 00:16:46;;;;;;;7.87;3.00;;;;;;;0.78;47.02;99969.94;6274801;22;20078;-77
2022/01/22 00:19:11;;;;;;;5.73;3.57;;;;;;;0.81;47.00;99969.75;6274760;22;20071;-77
2022/01/22 00:21:37;;;;;;;4.77;3.87;;;;;;;0.32;47.08;99890.75;6274738;22;20429;-77
2022/01/22 00:24:05;;;;;;;3.60;3.10;;;;;;;0.29;47.29;99895.34;6247361;22;19996;-77
2022/01/22 00:26:30;;;;;;;4.03;3.27;;;;;;;0.36;47.31;99891.38;6274635;22;20019;-77
2022/01/22 00:28:56;;;;;;;5.43;3.33;;;;;;;0.73;47.31;99959.00;6274588;22;20433;-77
2022/01/22 00:31:21;;;;;;;3.90;2.87;;;;;;;0.66;46.84;99945.59;6274462;22;20381;-78
2022/01/22 00:33:47;;;;;;;5.23;3.27;;;;;;;0.50;47.02;99932.84;6274412;22;20006;-77
2022/01/22 00:36:12;;;;;;;5.27;3.63;;;;;;;0.63;46.95;99940.63;6247227;22;20004;-77
2022/01/22 00:38:37;;;;;;;6.07;3.13;;;;;;;0.71;46.69;99948.72;6274402;22;20441;-77
2022/01/22 00:41:03;;;;;;;6.57;2.97;;;;;;;0.76;46.70;99957.06;6247533;22;19995;-77
2022/01/22 00:43:28;;;;;;;4.50;2.90;;;;;;;0.51;46.74;99918.91;6247462;22;20000;-77
2022/01/22 00:45:54;;;;;;;5.20;3.17;;;;;;;0.52;46.55;99936.16;6274451;22;20369;-77
2022/01/22 00:48:19;;;;;;;4.37;3.07;;;;;;;0.45;46.45;99915.91;6274402;22;20326;-77
2022/01/22 00:50:45;;;;;;;6.10;2.97;;;;;;;0.75;46.29;99964.97;6274403;22;19996;-77
2022/01/22 00:53:11;;;;;;;3.73;2.80;;;;;;;0.25;46.11;99902.50;6274592;22;20031;-77
2022/01/22 00:55:36;;;;;;;4.33;3.20;;;;;;;0.04;46.07;99874.56;6274604;22;19999;-77
2022/01/22 00:58:01;;;;;;;4.90;3.43;;;;;;;0.21;46.16;99889.84;6274579;22;20024;-77
2022/01/22 01:00:27;;;;;;;4.77;3.27;;;;;;;0.27;46.11;99905.00;6274428;22;20006;-77
2022/01/22 01:02:53;;;;;;;7.00;3.93;;;;;;;0.18;46.26;99897.81;6274147;22;20511;-77
2022/01/22 01:05:19;;;;;;;6.10;2.80;;;;;;;0.15;46.10;99895.44;6274236;22;20063;-77
2022/01/22 01:07:45;;;;;;;5.17;3.07;;;;;;;0.53;46.12;99966.41;6274086;22;20078;-77
2022/01/22 01:10:15;;;;;;;6.43;3.37;;;;;;;0.61;46.19;99948.53;6274123;22;20089;-77
2022/01/22 01:12:42;;;;;;;4.53;2.90;;;;;;;0.37;46.14;99902.59;6274243;22;19992;-77
2022/01/22 01:23:25;;;;;;;4.67;3.10;;;;;;;0.74;46.06;99943.31;6276502;22;20057;-77
2022/01/22 01:34:24;;;;;;;4.67;3.70;;;;;;;0.36;46.30;99896.56;6303421;22;20014;-83
2022/01/22 01:36:50;;;;;;;5.20;3.20;;;;;;;-0.09;46.22;99823.44;6302457;22;19992;-83
2022/01/22 01:39:23;;;;;;;5.63;3.40;;;;;;;0.57;46.16;99923.69;6302994;22;20007;-83
2022/01/22 01:42:01;;;;;;;5.87;3.73;;;;;;;0.06;46.31;99831.16;6302832;22;19992;-84
2022/01/22 01:44:28;;;;;;;4.73;3.07;;;;;;;0.49;46.55;99887.00;6302721;22;20016;-83
2022/01/22 01:46:58;;;;;;;3.73;3.30;;;;;;;0.59;46.09;99914.00;6301714;22;20000;-83
2022/01/22 01:49:25;;;;;;;7.20;3.93;;;;;;;-0.03;46.33;99817.84;6302309;22;20002;-83
2022/01/22 01:51:52;;;;;;;5.77;3.40;;;;;;;0.28;46.42;99873.72;6302732;22;19990;-83
2022/01/22 01:59:35;;;;;;;5.57;3.27;;;;;;;-0.12;46.27;99844.41;6302891;22;20011;-83
2022/01/22 02:02:00;;;;;;;4.60;2.70;;;;;;;-0.41;46.50;99797.06;6304078;22;19992;-83
2022/01/22 02:04:26;;;;;;;4.47;3.03;;;;;;;0.09;46.06;99864.69;6302954;22;20043;-83
2022/01/22 02:06:51;;;;;;;5.63;3.57;;;;;;;-0.05;45.89;99840.47;6277081;22;20070;-82
2022/01/22 02:09:17;;;;;;;6.40;3.87;;;;;;;-0.20;45.96;99820.75;6302586;22;19980;-84
2022/01/22 02:11:44;;;;;;;5.87;3.50;;;;;;;0.03;45.92;99849.53;6302111;22;20043;-83
2022/01/22 02:25:14;;;;;;;4.43;3.20;;;;;;;0.22;45.43;99888.91;6277826;22;20034;-77
2022/01/22 02:27:40;;;;;;;5.17;3.40;;;;;;;0.30;45.45;99918.59;6275135;22;20437;-77
2022/01/22 02:30:06;;;;;;;6.33;3.87;;;;;;;-0.66;45.88;99729.63;6275663;22;19996;-77
2022/01/22 02:33:03;;;;;;;5.77;4.10;;;;;;;0.29;45.63;99887.53;6275179;22;20104;-77
2022/01/22 02:35:55;;;;;;;5.27;3.60;;;;;;;-0.25;45.88;99809.84;6275789;22;20464;-77
2022/01/22 02:38:20;;;;;;;6.87;3.77;;;;;;;0.11;45.80;99842.06;6275300;22;19995;-77
2022/01/22 02:40:48;;;;;;;3.70;2.75;;;;;;;0.15;45.79;99846.94;6275895;22;20018;-77
2022/01/22 02:43:15;;;;;;;5.53;3.80;;;;;;;0.35;45.86;99870.72;6275683;22;20000;-78
2022/01/22 02:45:43;;;;;;;7.67;3.70;;;;;;;0.51;45.65;99897.28;6275193;22;20090;-77
2022/01/22 02:48:09;;;;;;;7.00;3.67;;;;;;;0.49;45.63;99887.00;6275319;22;20006;-77
2022/01/22 02:50:35;;;;;;;4.10;3.20;;;;;;;0.12;45.86;99839.38;6275649;22;20061;-77
2022/01/22 02:53:02;;;;;;;5.23;3.10;;;;;;;0.50;45.87;99890.44;6275650;22;20025;-77
2022/01/22 02:55:28;;;;;;;4.87;3.70;;;;;;;-0.07;45.78;99810.38;6275838;22;20010;-77
2022/01/22 02:57:53;;;;;;;5.63;3.80;;;;;;;0.44;45.87;99899.47;6275781;22;20019;-77
2022/01/22 03:00:22;;;;;;;5.43;3.70;;;;;;;0.45;45.96;99882.13;6275537;22;19999;-77
2022/01/22 03:02:49;;;;;;;6.57;3.40;;;;;;;0.41;45.70;99891.06;6275557;22;20019;-77
2022/01/22 03:05:14;;;;;;;7.73;4.43;;;;;;;0.50;45.75;99888.66;6275585;22;20000;-77
2022/01/22 03:07:41;;;;;;;7.43;3.80;;;;;;;0.16;45.50;99832.19;6275248;22;20009;-77
2022/01/22 03:10:08;;;;;;;5.87;3.70;;;;;;;0.47;45.79;99898.44;6275335;22;20129;-78
2022/01/22 03:12:51;;;;;;;6.53;4.70;;;;;;;0.30;45.60;99852.84;6248233;22;20003;-77
2022/01/22 03:18:16;;;;;;;6.27;4.63;;;;;;;0.26;45.68;99864.38;6275604;22;20000;-77
2022/01/22 03:29:04;;;;;;;5.90;3.77;;;;;;;0.25;45.80;99875.72;6275657;22;20011;-77
2022/01/22 03:31:31;;;;;;;7.87;4.07;;;;;;;-0.32;45.58;99780.88;6275460;22;20000;-77
2022/01/22 03:33:57;;;;;;;7.80;3.87;;;;;;;-0.13;45.53;99798.63;6275451;22;20450;-77
2022/01/22 03:36:23;;;;;;;7.47;4.10;;;;;;;-0.21;45.61;99767.19;6248199;22;20010;-77
2022/01/22 03:38:49;;;;;;;7.57;4.57;;;;;;;0.30;45.57;99852.84;6275497;22;20031;-77
2022/01/22 03:41:15;;;;;;;5.20;4.03;;;;;;;0.32;45.42;99863.97;6275534;22;20002;-77
2022/01/22 03:43:40;;;;;;;5.23;3.50;;;;;;;0.17;45.07;99823.47;6275230;22;19995;-77
2022/01/22 03:46:06;;;;;;;4.33;3.40;;;;;;;-0.30;45.00;99772.19;6275104;22;20350;-77
2022/01/22 03:48:31;;;;;;;5.80;3.93;;;;;;;0.20;45.26;99868.22;6275244;22;20062;-77
2022/01/22 03:50:57;;;;;;;4.23;3.20;;;;;;;-0.11;45.21;99799.38;6275195;22;20002;-77
2022/01/22 03:53:22;;;;;;;5.03;3.10;;;;;;;0.02;45.20;99835.72;6275170;22;20027;-77
2022/01/22 03:58:16;;;;;;;4.77;3.07;;;;;;;-0.44;44.94;99775.69;6275159;22;19997;-77
2022/01/22 04:00:42;;;;;;;5.50;3.40;;;;;;;-0.53;44.89;99751.22;6247595;22;19999;-77
2022/01/22 04:08:32;;;;;;;6.40;3.13;;;;;;;-0.40;44.71;99756.41;6281772;22;20015;-77
2022/01/22 04:10:58;;;;;;;4.30;3.27;;;;;;;0.08;44.42;99839.69;6286208;22;19999;-77
2022/01/22 04:13:31;;;;;;;4.80;3.30;;;;;;;-0.05;44.64;99811.09;6285972;22;20053;-76
2022/01/22 04:15:57;;;;;;;3.83;3.43;;;;;;;-0.04;44.54;99802.38;6282956;22;19995;-77
2022/01/22 04:26:53;;;;;;;6.17;3.47;;;;;;;-0.45;44.27;99746.34;6275221;22;20113;-78
2022/01/22 04:29:21;;;;;;;8.27;3.67;;;;;;;-0.38;44.16;99745.00;6248090;22;20007;-77
2022/01/22 04:31:47;;;;;;;6.93;2.97;;;;;;;-0.82;44.18;99680.53;6274898;22;20003;-77
2022/01/22 04:34:12;;;;;;;7.23;3.33;;;;;;;-0.11;44.10;99794.19;6275223;22;19992;-77
2022/01/22 04:36:38;;;;;;;6.40;3.37;;;;;;;-0.02;44.69;99813.47;6274823;22;20015;-78
2022/01/22 04:39:03;;;;;;;7.37;3.43;;;;;;;-0.72;44.46;99698.94;6275194;22;20002;-78
2022/01/22 04:41:29;;;;;;;3.87;3.10;;;;;;;-0.32;44.38;99783.50;6247980;22;20007;-77
2022/01/22 04:43:59;;;;;;;5.63;2.97;;;;;;;-0.02;43.90;99818.66;6242740;23;20020;-78
2022/01/22 04:46:47;;;;;;;6.67;3.30;;;;;;;0.04;44.41;99809.66;6244093;22;20004;-77
2022/01/22 04:52:31;;;;;;;6.17;3.07;;;;;;;0.09;44.23;99815.38;6244279;23;20004;-77
2022/01/22 04:55:02;;;;;;;7.10;2.80;;;;;;;-0.30;44.08;99767.81;6246604;23;20349;-77
2022/01/22 04:57:39;;;;;;;4.47;2.60;;;;;;;0.05;44.16;99819.13;6246327;23;19999;-77
2022/01/22 05:00:08;;;;;;;3.90;2.83;;;;;;;0.04;44.52;99833.88;6244250;23;19997;-77
2022/01/22 05:02:34;;;;;;;4.47;3.10;;;;;;;-0.27;44.47;99784.94;6246737;22;19996;-78
2022/01/22 05:04:59;;;;;;;3.37;2.67;;;;;;;-0.42;44.25;99764.28;6246549;22;20007;-77
2022/01/22 05:07:25;;;;;;;3.27;2.50;;;;;;;0.02;44.02;99834.91;6245269;23;20008;-78
2022/01/22 05:09:50;;;;;;;5.53;3.20;;;;;;;0.08;44.03;99835.31;6246875;22;20007;-77
2022/01/22 05:12:16;;;;;;;5.63;3.43;;;;;;;0.04;44.19;99838.22;6246673;22;19996;-78
2022/01/22 05:14:41;;;;;;;7.07;4.40;;;;;;;-0.70;44.11;99726.41;6246735;22;20456;-77
2022/01/22 05:17:08;;;;;;;7.37;3.17;;;;;;;-0.29;43.97;99799.78;6246442;22;19996;-77
2022/01/22 05:22:35;;;;;;;5.00;2.90;;;;;;;-0.28;44.14;99812.66;6247547;22;20079;-77
2022/01/22 05:24:59;;;;;;;4.90;3.93;;;;;;;-0.49;44.03;99778.59;6246826;22;20007;-77
2022/01/22 05:38:23;;;;;;;5.00;3.83;;;;;;;-0.39;43.90;99789.19;6247743;23;20062;-77
2022/01/22 05:40:49;;;;;;;6.17;4.17;;;;;;;-0.23;43.71;99812.34;6246206;22;20004;-78
2022/01/22 05:43:16;;;;;;;6.33;3.30;;;;;;;-0.34;43.85;99779.34;6245607;22;20054;-77
2022/01/22 05:45:41;;;;;;;8.00;4.00;;;;;;;-0.24;43.67;99806.31;6273204;22;20016;-78
2022/01/22 05:48:07;;;;;;;4.63;3.17;;;;;;;-0.08;43.88;99855.44;6276343;22;20064;-77
2022/01/22 05:50:43;;;;;;;4.87;3.83;;;;;;;-0.09;43.83;99856.34;6276391;22;20003;-77
2022/01/22 05:53:19;;;;;;;5.67;3.90;;;;;;;-0.06;44.33;99845.78;6275797;22;20445;-77
2022/01/22 06:01:08;;;;;;;8.13;4.87;;;;;;;-0.03;43.95;99838.59;6276210;22;20010;-77
2022/01/22 06:03:33;;;;;;;9.60;5.80;;;;;;;-0.24;43.90;99803.72;6276965;22;20422;-78
2022/01/22 06:05:59;;;;;;;12.80;6.10;;;;;;;-0.23;43.98;99807.16;6249472;22;20002;-78
2022/01/22 06:08:30;;;;;;;10.87;7.30;;;;;;;-0.46;44.16;99759.41;6276380;22;20004;-78
2022/01/22 06:10:56;;;;;;;11.13;6.20;;;;;;;-0.37;44.01;99764.81;6276778;22;19999;-78
2022/01/22 06:13:29;;;;;;;13.33;7.20;;;;;;;-0.33;43.58;99763.66;6276890;22;20089;-77
2022/01/22 06:15:55;;;;;;;10.43;6.43;;;;;;;0.19;43.91;99852.75;6276700;22;20006;-77
2022/01/22 06:18:20;;;;;;;11.90;6.80;;;;;;;-0.66;43.81;99704.53;6276793;22;19997;-78
2022/01/22 06:20:46;;;;;;;16.87;7.90;;;;;;;0.26;43.76;99854.81;6249472;22;19999;-77
2022/01/22 06:23:11;;;;;;;14.67;7.60;;;;;;;-0.24;43.89;99758.78;6276455;22;20000;-78
2022/01/22 06:25:37;;;;;;;10.83;6.83;;;;;;;0.29;43.91;99851.19;6276416;22;20000;-78
2022/01/22 06:28:03;;;;;;;12.77;5.90;;;;;;;0.28;43.88;99836.53;6276775;22;20074;-77
2022/01/22 06:30:28;;;;;;;11.67;6.27;;;;;;;-0.05;43.79;99785.13;6276395;22;19999;-77
2022/01/22 06:32:54;;;;;;;18.27;7.70;;;;;;;-0.12;43.63;99763.13;6276288;22;20056;-78
2022/01/22 06:35:19;;;;;;;14.63;6.20;;;;;;;-0.24;43.48;99748.41;6275678;22;20006;-78
2022/01/22 06:37:45;;;;;;;11.17;6.17;;;;;;;0.16;43.79;99812.25;6276309;22;19987;-77
2022/01/22 06:42:36;;;;;;;10.03;7.40;;;;;;;0.12;43.59;99809.97;6276253;22;20061;-78
2022/01/22 06:45:03;;;;;;;12.33;6.70;;;;;;;-0.27;43.88;99739.06;6275725;22;20049;-77
2022/01/22 06:47:30;;;;;;;13.47;7.73;;;;;;;0.21;43.73;99814.53;6248876;22;20050;-77
2022/01/22 06:49:55;;;;;;;13.40;7.03;;;;;;;0.04;43.68;99776.75;6275810;22;20057;-78
2022/01/22 06:52:21;;;;;;;9.03;6.80;;;;;;;-0.02;43.88;99744.22;6248951;22;20004;-78
2022/01/22 06:54:47;;;;;;;10.60;6.30;;;;;;;-0.36;43.54;99686.06;6275960;22;19995;-78
2022/01/22 06:57:13;;;;;;;9.70;6.20;;;;;;;-0.22;43.58;99703.25;6276314;22;19992;-77
2022/01/22 06:59:39;;;;;;;6.83;3.93;;;;;;;0.46;43.41;99806.69;6275687;22;20025;-77
2022/01/22 07:02:05;;;;;;;7.80;4.20;;;;;;;0.22;43.53;99770.28;6275855;22;19996;-78
2022/01/22 07:04:31;;;;;;;6.73;4.23;;;;;;;0.42;43.81;99804.41;6276623;22;20456;-77
2022/01/22 07:06:57;;;;;;;9.00;5.10;;;;;;;0.00;43.70;99720.81;6276539;22;20000;-77
2022/01/22 07:09:23;;;;;;;10.70;5.57;;;;;;;-0.01;43.55;99719.94;6276211;22;20007;-78
2022/01/22 07:11:49;;;;;;;10.77;5.97;;;;;;;0.46;43.78;99775.53;6248897;22;20005;-78
2022/01/22 07:14:16;;;;;;;9.10;5.40;;;;;;;0.42;43.82;99739.50;6248701;22;20349;-77
2022/01/22 07:16:41;;;;;;;8.70;5.10;;;;;;;0.36;43.47;99724.34;6276287;22;19995;-77
2022/01/22 07:19:07;;;;;;;10.27;5.50;;;;;;;0.78;43.32;99795.81;6275772;22;20019;-77
2022/01/22 07:21:32;;;;;;;10.57;5.90;;;;;;;0.39;43.69;99713.72;6275717;22;20000;-77
2022/01/22 07:26:30;;;;;;;6.72;3.97;;;;;;;0.83;43.07;99780.72;6276651;22;20003;-78
2022/01/22 07:28:56;;;;;;;11.73;5.43;;;;;;;0.69;43.28;99763.50;6276010;22;19999;-78
2022/01/22 07:31:24;;;;;;;11.23;6.73;;;;;;;0.82;43.11;99782.50;6248742;22;20027;-78
2022/01/22 07:33:50;;;;;;;10.43;5.07;;;;;;;0.78;42.93;99773.25;6275485;22;20003;-77
2022/01/22 07:36:15;;;;;;;7.97;4.80;;;;;;;0.66;43.03;99742.09;6248301;22;19999;-77
2022/01/22 07:38:41;;;;;;;10.50;5.77;;;;;;;0.78;42.98;99741.25;6275958;22;20003;-77
2022/01/22 07:41:07;;;;;;;10.80;6.70;;;;;;;0.74;43.15;99732.81;6276282;22;20455;-77
2022/01/22 07:43:34;;;;;;;15.37;7.23;;;;;;;0.56;42.84;99690.81;6275143;22;19999;-77
2022/01/22 07:46:00;;;;;;;8.90;4.37;;;;;;;0.31;42.57;99655.38;6276019;22;19995;-77
2022/01/22 07:48:26;;;;;;;7.03;3.97;;;;;;;0.23;42.53;99646.47;6276235;22;20065;-78
2022/01/22 07:50:51;;;;;;;10.47;4.37;;;;;;;0.45;42.80;99667.38;6276945;22;19996;-77
2022/01/22 07:53:17;;;;;;;10.67;4.87;;;;;;;1.01;42.85;99758.59;6276045;22;20006;-77
2022/01/22 07:55:42;;;;;;;7.10;4.70;;;;;;;1.17;42.67;99760.91;6276344;22;20003;-77
2022/01/22 07:58:07;;;;;;;7.33;4.63;;;;;;;0.94;42.57;99737.41;6249097;22;19999;-78
2022/01/22 08:00:33;;;;;;;8.90;4.03;;;;;;;1.06;42.59;99760.84;6276275;22;20002;-77
2022/01/22 08:02:59;;;;;;;10.13;4.40;;;;;;;1.12;42.65;99758.63;6276506;22;20011;-77
2022/01/22 08:05:24;;;;;;;7.07;3.53;;;;;;;1.22;42.87;99754.41;6248824;22;20326;-77
2022/01/22 08:07:50;;;;;;;9.20;4.57;;;;;;;0.68;42.47;99672.66;6249063;22;20007;-78
2022/01/22 08:10:16;;;;;;;8.00;4.53;;;;;;;0.72;42.35;99664.53;6276373;22;20061;-77
2022/01/22 08:12:42;;;;;;;8.60;4.07;;;;;;;0.34;42.20;99617.16;6275939;22;19995;-77
2022/01/22 08:15:11;;;;;;;7.60;4.00;;;;;;;1.27;41.87;99754.06;6277795;22;20408;-77
2022/01/22 08:17:37;;;;;;;9.47;5.07;;;;;;;1.35;42.28;99761.31;6277553;22;19992;-77
2022/01/22 08:20:04;;;;;;;14.10;5.70;;;;;;;1.06;42.21;99695.84;6276806;22;19999;-77
2022/01/22 08:22:29;;;;;;;7.67;4.13;;;;;;;1.41;41.79;99766.06;6275818;22;19996;-77
2022/01/22 08:24:57;;;;;;;9.80;5.70;;;;;;;1.31;41.89;99737.28;6275174;22;20007;-77
2022/01/22 08:29:55;;;;;;;8.05;4.72;;;;;;;0.95;41.58;99688.84;6276726;22;19999;-77
2022/01/22 08:37:35;;;;;;;5.93;3.50;;;;;;;1.35;41.29;99720.50;6276240;22;20007;-77
2022/01/22 08:40:01;;;;;;;6.03;4.23;;;;;;;1.38;41.07;99720.28;6276084;22;20003;-77
2022/01/22 08:42:27;;;;;;;5.87;3.63;;;;;;;0.85;41.02;99631.53;6276748;22;20029;-77
2022/01/22 08:44:53;;;;;;;6.30;4.07;;;;;;;1.42;40.96;99710.47;6275737;22;20095;-77
2022/01/22 08:47:18;;;;;;;7.03;3.83;;;;;;;1.32;41.03;99714.72;6248872;22;20004;-77
2022/01/22 08:49:44;;;;;;;12.03;4.20;;;;;;;1.16;40.77;99663.03;6248633;22;20086;-77
2022/01/22 08:52:13;;;;;;;7.90;3.53;;;;;;;1.44;40.74;99698.19;6275712;22;20125;-78
2022/01/22 08:54:39;;;;;;;5.67;3.53;;;;;;;1.02;40.84;99627.66;6275350;22;20003;-77
2022/01/22 08:57:04;;;;;;;7.37;3.87;;;;;;;0.89;41.19;99619.13;6275855;22;19992;-78
2022/01/22 08:59:30;;;;;;;7.37;3.47;;;;;;;0.92;40.92;99631.91;6276138;22;20053;-77
2022/01/22 09:01:55;;;;;;;5.33;3.67;;;;;;;1.62;40.95;99732.41;6248801;22;20027;-77
2022/01/22 09:04:21;;;;;;;8.13;3.80;;;;;;;1.55;41.17;99722.47;6275929;22;19996;-77
2022/01/22 09:06:47;;;;;;;7.70;3.87;;;;;;;1.09;41.04;99630.63;6275916;22;20435;-77
2022/01/22 09:09:13;;;;;;;10.57;5.07;;;;;;;1.56;41.35;99703.31;6275899;22;20083;-77
2022/01/22 09:11:41;;;;;;;14.30;9.97;;;;;;;1.58;41.58;99692.78;6275460;22;20006;-77
2022/01/22 09:14:09;;;;;;;12.63;7.27;;;;;;;1.73;41.47;99709.00;6275697;22;20010;-77
2022/01/22 09:16:36;;;;;;;12.90;8.77;;;;;;;1.77;41.57;99711.25;6275594;22;19998;-77
2022/01/22 09:19:09;;;;;;;18.20;11.03;;;;;;;1.68;41.55;99685.09;6275605;22;20392;-77
2022/01/22 09:21:36;;;;;;;16.13;8.07;;;;;;;1.85;41.62;99701.06;6248840;22;19996;-77
2022/01/22 09:24:03;;;;;;;14.90;9.63;;;;;;;1.64;41.79;99637.66;6275081;22;20022;-77
2022/01/22 09:26:29;;;;;;;15.60;8.63;;;;;;;2.06;41.57;99672.53;6274357;22;20019;-78
2022/01/22 09:28:57;;;;;;;13.33;7.40;;;;;;;2.21;41.75;99681.72;6274646;22;19995;-78
2022/01/22 09:31:23;;;;;;;13.50;8.17;;;;;;;1.89;41.39;99626.16;6275629;22;20030;-77
2022/01/22 09:33:49;;;;;;;10.70;6.87;;;;;;;2.27;41.46;99677.84;6275333;22;20023;-77
2022/01/22 09:36:14;;;;;;;8.67;5.37;;;;;;;2.19;41.23;99680.19;6275843;22;20403;-78
2022/01/22 09:38:40;;;;;;;7.23;5.17;;;;;;;2.09;41.40;99655.81;6277224;22;20323;-76
2022/01/22 09:41:05;;;;;;;7.13;4.40;;;;;;;1.80;41.78;99608.66;6277013;22;19995;-77
2022/01/22 09:43:31;;;;;;;9.97;4.80;;;;;;;1.82;41.29;99586.78;6277309;22;20352;-78
2022/01/22 09:45:57;;;;;;;5.53;4.30;;;;;;;2.18;41.55;99623.84;6277158;22;20008;-77
2022/01/22 09:48:23;;;;;;;7.17;4.53;;;;;;;2.41;40.76;99659.31;6276983;22;20510;-77
2022/01/22 09:50:48;;;;;;;13.80;5.30;;;;;;;2.32;41.27;99652.25;6277527;22;20003;-77
2022/01/22 09:53:13;;;;;;;11.13;5.33;;;;;;;1.80;41.10;99543.59;6275592;22;20000;-77
2022/01/22 09:55:39;;;;;;;7.63;4.90;;;;;;;1.64;41.12;99491.09;6277186;22;19995;-78
2022/01/22 09:58:04;;;;;;;7.80;4.40;;;;;;;2.29;41.22;99557.88;6277415;22;19992;-77
2022/01/22 10:00:30;;;;;;;9.00;3.80;;;;;;;2.48;41.03;99594.50;6250356;22;20006;-78
2022/01/22 10:02:57;;;;;;;8.47;4.37;;;;;;;2.66;40.91;99613.03;6278298;22;20004;-78
2022/01/22 10:05:48;;;;;;;7.27;4.70;;;;;;;2.70;40.56;99606.59;6303657;22;19984;-78
2022/01/22 10:08:35;;;;;;;6.47;4.38;;;;;;;2.76;40.35;99617.34;6270104;22;19990;-77
2022/01/22 10:11:02;;;;;;;9.53;4.60;;;;;;;2.79;40.73;99601.47;6280460;22;20026;-77
2022/01/22 10:13:42;;;;;;;8.30;4.40;;;;;;;2.87;40.37;99612.06;6277158;22;20002;-77
2022/01/22 10:16:26;;;;;;;6.57;4.30;;;;;;;2.50;39.63;99530.88;6276975;22;20437;-77
2022/01/22 10:19:15;;;;;;;9.90;4.73;;;;;;;3.01;40.12;99605.75;6277714;22;20019;-77
2022/01/22 10:21:46;;;;;;;10.07;4.47;;;;;;;2.76;40.24;99554.78;6277201;22;20006;-77
2022/01/22 10:24:44;;;;;;;7.88;4.95;;;;;;;3.15;40.06;99607.19;6276647;22;20125;-77
2022/01/22 10:29:53;;;;;;;7.47;4.80;;;;;;;3.14;39.52;99601.16;6277754;22;20010;-78
2022/01/22 10:32:24;;;;;;;7.23;3.90;;;;;;;2.77;39.43;99542.56;6276522;22;20000;-77
2022/01/22 10:35:03;;;;;;;7.73;4.50;;;;;;;2.84;38.95;99547.16;6276291;22;20071;-77
2022/01/22 10:37:28;;;;;;;8.47;5.43;;;;;;;2.59;39.33;99492.81;6276025;22;19995;-77
2022/01/22 10:40:16;;;;;;;7.47;4.23;;;;;;;3.50;39.14;99578.09;6276161;22;20068;-77
2022/01/22 10:42:42;;;;;;;8.93;4.97;;;;;;;3.71;39.14;99597.13;6275987;22;19995;-77
2022/01/22 10:45:11;;;;;;;6.13;4.07;;;;;;;3.30;38.64;99550.28;6248718;22;20016;-77
2022/01/22 10:47:36;;;;;;;6.73;3.83;;;;;;;3.30;38.22;99551.09;6275066;22;20031;-77
2022/01/22 10:50:19;;;;;;;5.83;4.00;;;;;;;3.34;37.87;99547.25;6276018;22;20019;-77
2022/01/22 10:52:52;;;;;;;9.43;3.90;;;;;;;3.56;37.59;99569.72;6275450;22;20357;-77
2022/01/22 10:55:19;;;;;;;8.63;4.67;;;;;;;3.43;37.67;99538.66;6275986;22;19999;-77
2022/01/22 10:58:05;;;;;;;8.17;4.27;;;;;;;3.53;37.74;99556.94;6276107;22;19998;-77
2022/01/22 11:00:30;;;;;;;10.90;4.40;;;;;;;3.59;37.71;99563.41;6275881;22;20022;-78
2022/01/22 11:02:56;;;;;;;5.57;3.33;;;;;;;3.51;37.40;99533.59;6276832;22;20505;-77
2022/01/22 11:05:37;;;;;;;5.77;3.00;;;;;;;3.48;37.20;99546.91;6279171;22;19999;-77
2022/01/22 11:08:12;;;;;;;4.70;3.22;;;;;;;3.49;36.84;99543.34;6252505;22;20011;-77
2022/01/22 11:10:39;;;;;;;7.90;3.90;;;;;;;3.04;37.37;99466.44;6279573;22;20023;-77
2022/01/22 11:13:04;;;;;;;6.57;3.90;;;;;;;2.86;36.63;99455.75;6278527;22;19996;-77
2022/01/22 11:15:30;;;;;;;4.80;3.50;;;;;;;2.82;36.96;99457.81;6278535;22;20002;-77
2022/01/22 11:17:57;;;;;;;5.90;2.80;;;;;;;2.85;37.09;99438.47;6248254;22;19992;-77
2022/01/22 11:20:24;;;;;;;7.83;3.87;;;;;;;3.38;36.41;99525.16;6275578;22;20000;-77
2022/01/22 11:22:51;;;;;;;16.83;8.30;;;;;;;3.40;37.14;99544.13;6276361;22;19995;-77
2022/01/22 11:25:17;;;;;;;10.17;6.23;;;;;;;3.33;36.97;99540.41;6276057;22;20002;-77
2022/01/22 11:27:45;;;;;;;11.23;5.27;;;;;;;3.07;37.19;99500.06;6275409;22;20027;-77
2022/01/22 11:30:14;;;;;;;8.97;4.67;;;;;;;2.74;37.20;99462.84;6275274;22;19995;-77
2022/01/22 11:32:49;;;;;;;9.53;5.43;;;;;;;3.31;36.37;99533.66;6275782;22;19996;-77
2022/01/22 11:35:28;;;;;;;9.03;4.30;;;;;;;2.54;36.71;99393.34;6275587;22;20016;-77
2022/01/22 11:38:00;;;;;;;8.27;4.50;;;;;;;2.60;37.26;99400.63;6275140;22;20075;-76
2022/01/22 11:40:27;;;;;;;6.23;4.07;;;;;;;3.50;36.80;99518.06;6275487;22;20000;-77
2022/01/22 11:42:56;;;;;;;12.80;3.97;;;;;;;3.57;36.76;99524.38;6275449;22;20437;-77
2022/01/22 11:45:33;;;;;;;5.97;3.10;;;;;;;3.52;36.17;99518.75;6247964;22;20019;-77
2022/01/22 11:48:24;;;;;;;4.67;2.97;;;;;;;3.49;34.94;99516.41;6274847;22;20079;-77
2022/01/22 11:50:52;;;;;;;6.80;2.80;;;;;;;3.44;35.99;99508.16;6275054;22;20070;-77
2022/01/22 11:53:30;;;;;;;4.47;2.77;;;;;;;3.33;35.89;99503.88;6275104;22;20006;-77
2022/01/22 11:56:10;;;;;;;10.80;4.93;;;;;;;3.34;36.04;99523.78;6274985;22;20070;-77
2022/01/22 11:59:02;;;;;;;5.80;3.93;;;;;;;3.46;36.05;99511.44;6275255;22;19999;-77
2022/01/22 12:01:52;;;;;;;7.78;4.63;;;;;;;3.61;36.31;99509.28;6274976;22;20000;-77
2022/01/22 12:04:20;;;;;;;8.77;4.60;;;;;;;3.33;37.36;99490.00;6248873;22;20448;-77
2022/01/22 12:07:15;;;;;;;6.03;4.07;;;;;;;3.32;38.27;99525.69;6275683;22;20007;-77
2022/01/22 12:10:16;;;;;;;8.73;3.93;;;;;;;2.90;38.15;99464.97;6272379;22;20007;-77
2022/01/22 12:15:49;;;;;;;10.30;5.23;;;;;;;3.00;38.52;99527.63;6275512;22;19999;-77
2022/01/22 12:18:18;;;;;;;6.27;4.30;;;;;;;2.99;38.65;99513.75;6246678;22;19999;-77
2022/01/22 12:23:19;;;;;;;5.90;3.87;;;;;;;3.09;37.67;99505.97;6274798;22;20049;-77
2022/01/22 12:25:44;;;;;;;8.93;4.20;;;;;;;3.09;38.36;99501.59;6274654;22;19999;-78
2022/01/22 12:28:12;;;;;;;5.93;3.30;;;;;;;2.76;37.95;99457.50;6246593;22;20010;-77
2022/01/22 12:30:49;;;;;;;5.53;3.77;;;;;;;2.08;37.98;99358.13;6274633;22;20002;-77
2022/01/22 12:33:30;;;;;;;7.93;5.07;;;;;;;2.92;37.59;99510.00;6274351;22;20067;-78
2022/01/22 12:36:08;;;;;;;35.43;15.70;;;;;;;3.01;37.79;99517.06;6275069;22;19995;-77
2022/01/22 12:38:46;;;;;;;26.10;10.70;;;;;;;3.05;38.16;99508.03;6274168;22;19992;-77
2022/01/22 12:44:09;;;;;;;7.20;4.70;;;;;;;3.19;36.94;99505.06;6274492;22;20077;-77
2022/01/22 12:46:36;;;;;;;10.47;5.57;;;;;;;3.02;37.55;99491.81;6274331;22;20497;-77
2022/01/22 12:49:07;;;;;;;4.63;3.10;;;;;;;3.26;37.16;99502.75;6247985;22;20078;-77
2022/01/22 12:51:34;;;;;;;10.57;5.70;;;;;;;3.27;37.20;99500.97;6274542;22;20467;-77
2022/01/22 12:54:00;;;;;;;5.97;3.10;;;;;;;3.23;37.18;99499.56;6274273;22;19995;-78
2022/01/22 12:59:02;;;;;;;6.63;3.93;;;;;;;3.31;36.80;99494.53;6274261;22;20079;-78
2022/01/22 13:01:30;;;;;;;14.13;6.80;;;;;;;3.17;36.90;99456.59;6274875;22;20053;-78
2022/01/22 13:03:57;;;;;;;13.03;6.53;;;;;;;2.88;36.90;99415.56;6277339;22;19999;-77
2022/01/22 13:06:25;;;;;;;10.90;5.37;;;;;;;2.75;37.07;99388.06;6276976;22;20010;-77
2022/01/22 13:08:56;;;;;;;7.57;5.13;;;;;;;3.47;37.15;99497.44;6279037;22;20006;-78
2022/01/22 13:11:27;;;;;;;5.15;3.97;;;;;;;2.73;36.82;99379.56;6277760;22;20076;-77
2022/01/22 13:13:54;;;;;;;10.93;5.37;;;;;;;2.92;36.50;99407.47;6251012;22;20511;-78
2022/01/22 13:16:20;;;;;;;11.20;6.37;;;;;;;3.00;36.45;99411.09;6281368;22;19996;-78
2022/01/22 13:18:50;;;;;;;7.13;5.23;;;;;;;3.41;36.08;99488.38;6280843;22;19996;-77
2022/01/22 13:21:17;;;;;;;17.53;8.17;;;;;;;3.44;35.74;99487.28;6282374;22;20445;-77
2022/01/22 13:23:47;;;;;;;7.87;4.07;;;;;;;3.34;35.62;99494.25;6255611;22;20393;-78
2022/01/22 13:26:13;;;;;;;6.37;4.13;;;;;;;3.39;35.83;99499.91;6282699;22;20011;-78
2022/01/22 13:28:39;;;;;;;8.83;5.13;;;;;;;2.91;35.25;99424.06;6281043;22;20026;-78
2022/01/22 13:31:14;;;;;;;8.33;4.97;;;;;;;3.33;35.17;99488.22;6282783;22;19996;-78
2022/01/22 13:36:42;;;;;;;8.27;4.87;;;;;;;2.86;35.93;99440.13;6281924;22;20022;-77
2022/01/22 13:49:51;;;;;;;13.17;6.97;;;;;;;3.22;36.22;99480.50;6276714;22;20144;-77
2022/01/22 13:52:19;;;;;;;10.97;6.27;;;;;;;3.05;36.42;99436.78;6276326;22;19999;-77